sensor_id;sensor_type;location;lat;lon;timestamp;P1;durP1;ratioP1;P2;durP2;ratioP2
30729;SDS011;17476;48.458;7.928;2023-06-14T00:01:52;0.20;;;0.20;;
30729;SDS011;17476;48.458;7.928;2023-06-14T00:04:17;0.30;;;0.30;;
30729;SDS011;17476;48.458;7.928;2023-06-14T00:06:45;0.20;;;0.20;;
30729;SDS011;17476;48.458;7.928;2023-06-14T00:09:12;0.30;;;0.30;;
30729;SDS011;17476;48.458;7.928;2023-06-14T00:11:38;0.20;;;0.20;;
30729;SDS011;17476;48.458;7.928;2023-06-14T00:14:06;0.30;;;0.30;;
30729;SDS011;17476;48.458;7.928;2023-06-14T00:16:32;0.20;;;0.20;;
30729;SDS011;17476;48.458;7.928;2023-06-14T00:19:00;0.20;;;0.20;;
30729;SDS011;17476;48.458;7.928;2023-06-14T00:21:29;0.20;;;0.20;;
30729;SDS011;17476;48.458;7.928;2023-06-14T00:23:55;0.20;;;0.20;;
30729;SDS011;17476;48.458;7.928;2023-06-14T00:26:23;0.20;;;0.20;;
30729;SDS011;17476;48.458;7.928;2023-06-14T00:28:49;0.20;;;0.20;;
30729;SDS011;17476;48.458;7.928;2023-06-14T00:31:14;0.20;;;0.20;;
30729;SDS011;17476;48.458;7.928;2023-06-14T00:33:40;0.20;;;0.20;;
30729;SDS011;17476;48.458;7.928;2023-06-14T00:36:06;0.20;;;0.20;;
30729;SDS011;17476;48.458;7.928;2023-06-14T00:38:32;0.20;;;0.20;;
30729;SDS011;17476;48.458;7.928;2023-06-14T00:40:58;0.20;;;0.20;;
30729;SDS011;17476;48.458;7.928;2023-06-14T00:43:24;0.30;;;0.30;;
30729;SDS011;17476;48.458;7.928;2023-06-14T00:45:49;0.30;;;0.30;;
30729;SDS011;17476;48.458;7.928;2023-06-14T00:48:16;0.20;;;0.20;;
30729;SDS011;17476;48.458;7.928;2023-06-14T00:50:42;0.20;;;0.20;;
30729;SDS011;17476;48.458;7.928;2023-06-14T00:53:11;0.30;;;0.30;;
30729;SDS011;17476;48.458;7.928;2023-06-14T00:55:40;0.30;;;0.30;;
30729;SDS011;17476;48.458;7.928;2023-06-14T00:58:06;0.20;;;0.20;;
30729;SDS011;17476;48.458;7.928;2023-06-14T01:00:33;0.20;;;0.20;;
30729;SDS011;17476;48.458;7.928;2023-06-14T01:02:59;0.20;;;0.20;;
30729;SDS011;17476;48.458;7.928;2023-06-14T01:05:26;0.30;;;0.30;;
30729;SDS011;17476;48.458;7.928;2023-06-14T01:10:56;0.30;;;0.30;;
30729;SDS011;17476;48.458;7.928;2023-06-14T01:13:34;0.30;;;0.30;;
30729;SDS011;17476;48.458;7.928;2023-06-14T01:16:04;0.20;;;0.20;;
30729;SDS011;17476;48.458;7.928;2023-06-14T01:18:32;0.23;;;0.23;;
30729;SDS011;17476;48.458;7.928;2023-06-14T01:20:58;0.20;;;0.20;;
30729;SDS011;17476;48.458;7.928;2023-06-14T01:23:24;0.30;;;0.30;;
30729;SDS011;17476;48.458;7.928;2023-06-14T01:25:57;0.20;;;0.20;;
30729;SDS011;17476;48.458;7.928;2023-06-14T01:28:23;0.30;;;0.30;;
30729;SDS011;17476;48.458;7.928;2023-06-14T01:30:50;0.30;;;0.30;;
30729;SDS011;17476;48.458;7.928;2023-06-14T01:33:23;0.23;;;0.23;;
30729;SDS011;17476;48.458;7.928;2023-06-14T01:35:52;0.30;;;0.30;;
30729;SDS011;17476;48.458;7.928;2023-06-14T01:38:21;0.30;;;0.30;;
30729;SDS011;17476;48.458;7.928;2023-06-14T01:40:50;0.30;;;0.30;;
30729;SDS011;17476;48.458;7.928;2023-06-14T01:43:20;0.30;;;0.30;;
30729;SDS011;17476;48.458;7.928;2023-06-14T01:45:47;0.30;;;0.30;;
30729;SDS011;17476;48.458;7.928;2023-06-14T01:48:15;0.20;;;0.20;;
30729;SDS011;17476;48.458;7.928;2023-06-14T01:50:41;0.30;;;0.30;;
30729;SDS011;17476;48.458;7.928;2023-06-14T01:53:08;0.20;;;0.20;;
30729;SDS011;17476;48.458;7.928;2023-06-14T01:55:35;0.20;;;0.20;;
30729;SDS011;17476;48.458;7.928;2023-06-14T01:58:03;0.20;;;0.20;;
30729;SDS011;17476;48.458;7.928;2023-06-14T02:00:30;0.30;;;0.30;;
30729;SDS011;17476;48.458;7.928;2023-06-14T02:02:55;0.30;;;0.30;;
30729;SDS011;17476;48.458;7.928;2023-06-14T02:05:22;0.30;;;0.30;;
30729;SDS011;17476;48.458;7.928;2023-06-14T02:07:48;0.20;;;0.20;;
30729;SDS011;17476;48.458;7.928;2023-06-14T02:10:13;0.30;;;0.30;;
30729;SDS011;17476;48.458;7.928;2023-06-14T02:12:40;0.20;;;0.20;;
30729;SDS011;17476;48.458;7.928;2023-06-14T02:15:06;0.20;;;0.20;;
30729;SDS011;17476;48.458;7.928;2023-06-14T02:17:33;0.30;;;0.30;;
30729;SDS011;17476;48.458;7.928;2023-06-14T02:19:59;0.33;;;0.33;;
30729;SDS011;17476;48.458;7.928;2023-06-14T02:22:25;0.30;;;0.30;;
30729;SDS011;17476;48.458;7.928;2023-06-14T02:24:51;0.30;;;0.30;;
30729;SDS011;17476;48.458;7.928;2023-06-14T02:27:17;0.33;;;0.33;;
30729;SDS011;17476;48.458;7.928;2023-06-14T02:29:43;0.40;;;0.40;;
30729;SDS011;17476;48.458;7.928;2023-06-14T02:32:09;0.20;;;0.20;;
30729;SDS011;17476;48.458;7.928;2023-06-14T02:34:35;0.30;;;0.30;;
30729;SDS011;17476;48.458;7.928;2023-06-14T02:37:02;0.30;;;0.30;;
30729;SDS011;17476;48.458;7.928;2023-06-14T02:39:28;0.20;;;0.20;;
30729;SDS011;17476;48.458;7.928;2023-06-14T02:41:54;0.30;;;0.30;;
30729;SDS011;17476;48.458;7.928;2023-06-14T02:44:23;0.30;;;0.30;;
30729;SDS011;17476;48.458;7.928;2023-06-14T02:46:53;0.30;;;0.30;;
30729;SDS011;17476;48.458;7.928;2023-06-14T02:49:20;0.20;;;0.20;;
30729;SDS011;17476;48.458;7.928;2023-06-14T02:51:47;0.30;;;0.30;;
30729;SDS011;17476;48.458;7.928;2023-06-14T02:54:13;0.30;;;0.30;;
30729;SDS011;17476;48.458;7.928;2023-06-14T02:56:39;0.30;;;0.30;;
30729;SDS011;17476;48.458;7.928;2023-06-14T02:59:05;0.30;;;0.30;;
30729;SDS011;17476;48.458;7.928;2023-06-14T03:01:32;0.30;;;0.30;;
30729;SDS011;17476;48.458;7.928;2023-06-14T03:04:06;0.40;;;0.40;;
30729;SDS011;17476;48.458;7.928;2023-06-14T03:06:33;0.30;;;0.30;;
30729;SDS011;17476;48.458;7.928;2023-06-14T03:08:59;0.30;;;0.30;;
30729;SDS011;17476;48.458;7.928;2023-06-14T03:11:29;0.30;;;0.30;;
30729;SDS011;17476;48.458;7.928;2023-06-14T03:13:56;0.30;;;0.30;;
30729;SDS011;17476;48.458;7.928;2023-06-14T03:16:22;0.30;;;0.30;;
30729;SDS011;17476;48.458;7.928;2023-06-14T03:18:52;0.30;;;0.30;;
30729;SDS011;17476;48.458;7.928;2023-06-14T03:21:18;0.33;;;0.33;;
30729;SDS011;17476;48.458;7.928;2023-06-14T03:23:45;0.20;;;0.20;;
30729;SDS011;17476;48.458;7.928;2023-06-14T03:26:12;0.30;;;0.30;;
30729;SDS011;17476;48.458;7.928;2023-06-14T03:28:39;0.30;;;0.30;;
30729;SDS011;17476;48.458;7.928;2023-06-14T03:31:08;0.20;;;0.20;;
30729;SDS011;17476;48.458;7.928;2023-06-14T03:33:34;0.40;;;0.40;;
30729;SDS011;17476;48.458;7.928;2023-06-14T03:36:01;0.30;;;0.30;;
30729;SDS011;17476;48.458;7.928;2023-06-14T03:38:28;0.30;;;0.30;;
30729;SDS011;17476;48.458;7.928;2023-06-14T03:40:54;0.30;;;0.30;;
30729;SDS011;17476;48.458;7.928;2023-06-14T03:43:20;0.20;;;0.20;;
30729;SDS011;17476;48.458;7.928;2023-06-14T03:45:46;0.30;;;0.30;;
30729;SDS011;17476;48.458;7.928;2023-06-14T03:48:11;0.30;;;0.30;;
30729;SDS011;17476;48.458;7.928;2023-06-14T03:50:37;0.20;;;0.20;;
30729;SDS011;17476;48.458;7.928;2023-06-14T03:53:06;0.20;;;0.20;;
30729;SDS011;17476;48.458;7.928;2023-06-14T03:55:32;0.30;;;0.30;;
30729;SDS011;17476;48.458;7.928;2023-06-14T03:57:58;0.20;;;0.20;;
30729;SDS011;17476;48.458;7.928;2023-06-14T04:00:24;0.20;;;0.20;;
30729;SDS011;17476;48.458;7.928;2023-06-14T04:02:51;0.30;;;0.30;;
30729;SDS011;17476;48.458;7.928;2023-06-14T04:05:17;0.20;;;0.20;;
30729;SDS011;17476;48.458;7.928;2023-06-14T04:07:44;0.23;;;0.23;;
30729;SDS011;17476;48.458;7.928;2023-06-14T04:10:14;0.30;;;0.30;;
30729;SDS011;17476;48.458;7.928;2023-06-14T04:12:41;0.23;;;0.23;;
30729;SDS011;17476;48.458;7.928;2023-06-14T04:15:08;0.30;;;0.30;;
30729;SDS011;17476;48.458;7.928;2023-06-14T04:17:34;0.30;;;0.30;;
30729;SDS011;17476;48.458;7.928;2023-06-14T04:20:02;0.20;;;0.20;;
30729;SDS011;17476;48.458;7.928;2023-06-14T04:22:30;0.30;;;0.30;;
30729;SDS011;17476;48.458;7.928;2023-06-14T04:24:58;0.20;;;0.20;;
30729;SDS011;17476;48.458;7.928;2023-06-14T04:27:25;0.30;;;0.30;;
30729;SDS011;17476;48.458;7.928;2023-06-14T04:29:53;0.37;;;0.37;;
30729;SDS011;17476;48.458;7.928;2023-06-14T04:32:24;0.20;;;0.20;;
30729;SDS011;17476;48.458;7.928;2023-06-14T04:35:04;0.30;;;0.30;;
30729;SDS011;17476;48.458;7.928;2023-06-14T04:37:33;0.40;;;0.40;;
30729;SDS011;17476;48.458;7.928;2023-06-14T04:39:59;0.20;;;0.20;;
30729;SDS011;17476;48.458;7.928;2023-06-14T04:42:26;0.30;;;0.30;;
30729;SDS011;17476;48.458;7.928;2023-06-14T04:44:56;0.30;;;0.30;;
30729;SDS011;17476;48.458;7.928;2023-06-14T04:47:22;0.30;;;0.30;;
30729;SDS011;17476;48.458;7.928;2023-06-14T04:49:55;0.30;;;0.30;;
30729;SDS011;17476;48.458;7.928;2023-06-14T04:52:22;0.30;;;0.30;;
30729;SDS011;17476;48.458;7.928;2023-06-14T04:54:51;0.30;;;0.30;;
30729;SDS011;17476;48.458;7.928;2023-06-14T04:57:19;0.30;;;0.30;;
30729;SDS011;17476;48.458;7.928;2023-06-14T04:59:47;0.20;;;0.20;;
30729;SDS011;17476;48.458;7.928;2023-06-14T05:02:13;0.33;;;0.33;;
30729;SDS011;17476;48.458;7.928;2023-06-14T05:04:39;0.30;;;0.30;;
30729;SDS011;17476;48.458;7.928;2023-06-14T05:07:11;0.30;;;0.30;;
30729;SDS011;17476;48.458;7.928;2023-06-14T05:09:37;0.20;;;0.20;;
30729;SDS011;17476;48.458;7.928;2023-06-14T05:12:03;0.30;;;0.30;;
30729;SDS011;17476;48.458;7.928;2023-06-14T05:14:29;0.20;;;0.20;;
30729;SDS011;17476;48.458;7.928;2023-06-14T05:16:55;0.20;;;0.20;;
30729;SDS011;17476;48.458;7.928;2023-06-14T05:19:22;0.30;;;0.30;;
30729;SDS011;17476;48.458;7.928;2023-06-14T05:21:48;0.20;;;0.20;;
30729;SDS011;17476;48.458;7.928;2023-06-14T05:24:14;0.20;;;0.20;;
30729;SDS011;17476;48.458;7.928;2023-06-14T05:26:42;0.20;;;0.20;;
30729;SDS011;17476;48.458;7.928;2023-06-14T05:29:07;0.30;;;0.30;;
30729;SDS011;17476;48.458;7.928;2023-06-14T05:31:33;0.30;;;0.30;;
30729;SDS011;17476;48.458;7.928;2023-06-14T05:33:59;0.20;;;0.20;;
30729;SDS011;17476;48.458;7.928;2023-06-14T05:36:25;0.30;;;0.30;;
30729;SDS011;17476;48.458;7.928;2023-06-14T05:38:52;0.30;;;0.30;;
30729;SDS011;17476;48.458;7.928;2023-06-14T05:41:27;0.20;;;0.20;;
30729;SDS011;17476;48.458;7.928;2023-06-14T05:43:54;0.20;;;0.20;;
30729;SDS011;17476;48.458;7.928;2023-06-14T05:46:21;0.20;;;0.20;;
30729;SDS011;17476;48.458;7.928;2023-06-14T05:48:49;0.20;;;0.20;;
30729;SDS011;17476;48.458;7.928;2023-06-14T05:51:16;0.20;;;0.20;;
30729;SDS011;17476;48.458;7.928;2023-06-14T05:53:44;0.20;;;0.20;;
30729;SDS011;17476;48.458;7.928;2023-06-14T05:56:14;0.20;;;0.20;;
30729;SDS011;17476;48.458;7.928;2023-06-14T05:58:42;0.20;;;0.20;;
30729;SDS011;17476;48.458;7.928;2023-06-14T06:01:08;0.20;;;0.20;;
30729;SDS011;17476;48.458;7.928;2023-06-14T06:03:34;0.23;;;0.23;;
30729;SDS011;17476;48.458;7.928;2023-06-14T06:06:00;0.10;;;0.10;;
30729;SDS011;17476;48.458;7.928;2023-06-14T06:08:28;0.20;;;0.20;;
30729;SDS011;17476;48.458;7.928;2023-06-14T06:10:54;0.17;;;0.17;;
30729;SDS011;17476;48.458;7.928;2023-06-14T06:13:21;0.10;;;0.10;;
30729;SDS011;17476;48.458;7.928;2023-06-14T06:15:47;0.10;;;0.10;;
30729;SDS011;17476;48.458;7.928;2023-06-14T06:18:13;0.20;;;0.20;;
30729;SDS011;17476;48.458;7.928;2023-06-14T06:20:39;0.20;;;0.20;;
30729;SDS011;17476;48.458;7.928;2023-06-14T06:23:05;0.20;;;0.20;;
30729;SDS011;17476;48.458;7.928;2023-06-14T06:25:32;0.10;;;0.10;;
30729;SDS011;17476;48.458;7.928;2023-06-14T06:27:58;0.20;;;0.20;;
30729;SDS011;17476;48.458;7.928;2023-06-14T06:30:24;0.20;;;0.20;;
30729;SDS011;17476;48.458;7.928;2023-06-14T06:32:51;0.10;;;0.10;;
30729;SDS011;17476;48.458;7.928;2023-06-14T06:35:18;0.20;;;0.20;;
30729;SDS011;17476;48.458;7.928;2023-06-14T06:37:44;0.20;;;0.20;;
30729;SDS011;17476;48.458;7.928;2023-06-14T06:40:10;0.10;;;0.10;;
30729;SDS011;17476;48.458;7.928;2023-06-14T06:42:36;0.10;;;0.10;;
30729;SDS011;17476;48.458;7.928;2023-06-14T06:45:02;0.10;;;0.10;;
30729;SDS011;17476;48.458;7.928;2023-06-14T06:47:28;0.10;;;0.10;;
30729;SDS011;17476;48.458;7.928;2023-06-14T06:49:55;0.10;;;0.10;;
30729;SDS011;17476;48.458;7.928;2023-06-14T06:52:20;0.10;;;0.10;;
30729;SDS011;17476;48.458;7.928;2023-06-14T06:54:46;0.10;;;0.10;;
30729;SDS011;17476;48.458;7.928;2023-06-14T06:57:14;0.10;;;0.10;;
30729;SDS011;17476;48.458;7.928;2023-06-14T06:59:39;0.00;;;0.00;;
30729;SDS011;17476;48.458;7.928;2023-06-14T07:02:05;0.10;;;0.10;;
30729;SDS011;17476;48.458;7.928;2023-06-14T07:04:31;0.00;;;0.00;;
30729;SDS011;17476;48.458;7.928;2023-06-14T07:06:57;0.10;;;0.10;;
30729;SDS011;17476;48.458;7.928;2023-06-14T07:09:23;0.10;;;0.10;;
30729;SDS011;17476;48.458;7.928;2023-06-14T07:11:49;0.00;;;0.00;;
30729;SDS011;17476;48.458;7.928;2023-06-14T07:14:15;0.10;;;0.10;;
30729;SDS011;17476;48.458;7.928;2023-06-14T07:16:41;0.07;;;0.07;;
30729;SDS011;17476;48.458;7.928;2023-06-14T07:19:08;0.00;;;0.00;;
30729;SDS011;17476;48.458;7.928;2023-06-14T07:21:35;0.07;;;0.07;;
30729;SDS011;17476;48.458;7.928;2023-06-14T07:24:03;0.00;;;0.00;;
30729;SDS011;17476;48.458;7.928;2023-06-14T07:26:31;0.00;;;0.00;;
30729;SDS011;17476;48.458;7.928;2023-06-14T07:28:57;0.00;;;0.00;;
30729;SDS011;17476;48.458;7.928;2023-06-14T07:31:23;0.00;;;0.00;;
30729;SDS011;17476;48.458;7.928;2023-06-14T07:33:49;0.00;;;0.00;;
30729;SDS011;17476;48.458;7.928;2023-06-14T07:36:15;0.00;;;0.00;;
30729;SDS011;17476;48.458;7.928;2023-06-14T07:38:42;0.00;;;0.00;;
30729;SDS011;17476;48.458;7.928;2023-06-14T07:41:09;0.00;;;0.00;;
30729;SDS011;17476;48.458;7.928;2023-06-14T07:43:34;0.10;;;0.10;;
30729;SDS011;17476;48.458;7.928;2023-06-14T07:46:00;0.00;;;0.00;;
30729;SDS011;17476;48.458;7.928;2023-06-14T07:48:27;0.00;;;0.00;;
30729;SDS011;17476;48.458;7.928;2023-06-14T07:50:53;0.00;;;0.00;;
30729;SDS011;17476;48.458;7.928;2023-06-14T07:53:19;0.00;;;0.00;;
30729;SDS011;17476;48.458;7.928;2023-06-14T07:55:45;0.00;;;0.00;;
30729;SDS011;17476;48.458;7.928;2023-06-14T07:58:12;0.00;;;0.00;;
30729;SDS011;17476;48.458;7.928;2023-06-14T08:00:38;0.00;;;0.00;;
30729;SDS011;17476;48.458;7.928;2023-06-14T08:03:04;0.00;;;0.00;;
30729;SDS011;17476;48.458;7.928;2023-06-14T08:05:29;0.00;;;0.00;;
30729;SDS011;17476;48.458;7.928;2023-06-14T08:07:56;0.10;;;0.10;;
30729;SDS011;17476;48.458;7.928;2023-06-14T08:10:22;0.00;;;0.00;;
30729;SDS011;17476;48.458;7.928;2023-06-14T08:12:48;0.00;;;0.00;;
30729;SDS011;17476;48.458;7.928;2023-06-14T08:15:17;0.00;;;0.00;;
30729;SDS011;17476;48.458;7.928;2023-06-14T08:17:43;0.00;;;0.00;;
30729;SDS011;17476;48.458;7.928;2023-06-14T08:20:10;0.00;;;0.00;;
30729;SDS011;17476;48.458;7.928;2023-06-14T08:22:37;0.00;;;0.00;;
30729;SDS011;17476;48.458;7.928;2023-06-14T08:25:04;0.00;;;0.00;;
30729;SDS011;17476;48.458;7.928;2023-06-14T08:27:31;0.00;;;0.00;;
30729;SDS011;17476;48.458;7.928;2023-06-14T08:29:57;0.00;;;0.00;;
30729;SDS011;17476;48.458;7.928;2023-06-14T08:32:23;0.00;;;0.00;;
30729;SDS011;17476;48.458;7.928;2023-06-14T08:34:49;0.00;;;0.00;;
30729;SDS011;17476;48.458;7.928;2023-06-14T08:37:15;0.00;;;0.00;;
30729;SDS011;17476;48.458;7.928;2023-06-14T08:39:41;0.00;;;0.00;;
30729;SDS011;17476;48.458;7.928;2023-06-14T08:42:09;0.00;;;0.00;;
30729;SDS011;17476;48.458;7.928;2023-06-14T08:44:35;0.00;;;0.00;;
30729;SDS011;17476;48.458;7.928;2023-06-14T08:47:01;0.00;;;0.00;;
30729;SDS011;17476;48.458;7.928;2023-06-14T08:49:28;0.00;;;0.00;;
30729;SDS011;17476;48.458;7.928;2023-06-14T08:51:59;0.00;;;0.00;;
30729;SDS011;17476;48.458;7.928;2023-06-14T08:54:29;0.00;;;0.00;;
30729;SDS011;17476;48.458;7.928;2023-06-14T08:56:58;0.00;;;0.00;;
30729;SDS011;17476;48.458;7.928;2023-06-14T08:59:25;0.00;;;0.00;;
30729;SDS011;17476;48.458;7.928;2023-06-14T09:01:52;0.00;;;0.00;;
30729;SDS011;17476;48.458;7.928;2023-06-14T09:04:20;0.00;;;0.00;;
30729;SDS011;17476;48.458;7.928;2023-06-14T09:06:54;0.00;;;0.00;;
30729;SDS011;17476;48.458;7.928;2023-06-14T09:09:21;0.00;;;0.00;;
30729;SDS011;17476;48.458;7.928;2023-06-14T09:11:53;0.00;;;0.00;;
30729;SDS011;17476;48.458;7.928;2023-06-14T09:14:21;0.00;;;0.00;;
30729;SDS011;17476;48.458;7.928;2023-06-14T09:16:52;0.00;;;0.00;;
30729;SDS011;17476;48.458;7.928;2023-06-14T09:19:25;0.00;;;0.00;;
30729;SDS011;17476;48.458;7.928;2023-06-14T09:21:51;0.00;;;0.00;;
30729;SDS011;17476;48.458;7.928;2023-06-14T09:24:36;0.00;;;0.00;;
30729;SDS011;17476;48.458;7.928;2023-06-14T09:27:22;0.00;;;0.00;;
30729;SDS011;17476;48.458;7.928;2023-06-14T09:30:12;0.00;;;0.00;;
30729;SDS011;17476;48.458;7.928;2023-06-14T09:32:58;0.00;;;0.00;;
30729;SDS011;17476;48.458;7.928;2023-06-14T09:35:45;0.00;;;0.00;;
30729;SDS011;17476;48.458;7.928;2023-06-14T09:38:35;0.00;;;0.00;;
30729;SDS011;17476;48.458;7.928;2023-06-14T09:41:34;0.00;;;0.00;;
30729;SDS011;17476;48.458;7.928;2023-06-14T09:44:25;0.00;;;0.00;;
30729;SDS011;17476;48.458;7.928;2023-06-14T09:47:15;0.00;;;0.00;;
30729;SDS011;17476;48.458;7.928;2023-06-14T09:50:01;0.00;;;0.00;;
30729;SDS011;17476;48.458;7.928;2023-06-14T09:52:48;0.00;;;0.00;;
30729;SDS011;17476;48.458;7.928;2023-06-14T09:55:41;0.00;;;0.00;;
30729;SDS011;17476;48.458;7.928;2023-06-14T09:58:28;0.00;;;0.00;;
30729;SDS011;17476;48.458;7.928;2023-06-14T10:01:14;0.00;;;0.00;;
30729;SDS011;17476;48.458;7.928;2023-06-14T10:04:03;0.00;;;0.00;;
30729;SDS011;17476;48.458;7.928;2023-06-14T10:06:52;0.00;;;0.00;;
30729;SDS011;17476;48.458;7.928;2023-06-14T10:09:39;0.00;;;0.00;;
30729;SDS011;17476;48.458;7.928;2023-06-14T10:12:29;0.00;;;0.00;;
30729;SDS011;17476;48.458;7.928;2023-06-14T10:15:20;0.00;;;0.00;;
30729;SDS011;17476;48.458;7.928;2023-06-14T10:18:35;0.00;;;0.00;;
30729;SDS011;17476;48.458;7.928;2023-06-14T10:21:45;0.00;;;0.00;;
30729;SDS011;17476;48.458;7.928;2023-06-14T10:24:44;0.00;;;0.00;;
30729;SDS011;17476;48.458;7.928;2023-06-14T10:27:31;0.00;;;0.00;;
30729;SDS011;17476;48.458;7.928;2023-06-14T10:30:17;0.00;;;0.00;;
30729;SDS011;17476;48.458;7.928;2023-06-14T10:33:05;0.00;;;0.00;;
30729;SDS011;17476;48.458;7.928;2023-06-14T10:35:33;0.00;;;0.00;;
30729;SDS011;17476;48.458;7.928;2023-06-14T10:38:09;0.00;;;0.00;;
30729;SDS011;17476;48.458;7.928;2023-06-14T10:40:36;0.00;;;0.00;;
30729;SDS011;17476;48.458;7.928;2023-06-14T10:43:20;0.00;;;0.00;;
30729;SDS011;17476;48.458;7.928;2023-06-14T10:48:43;0.00;;;0.00;;
30729;SDS011;17476;48.458;7.928;2023-06-14T10:51:16;0.00;;;0.00;;
30729;SDS011;17476;48.458;7.928;2023-06-14T10:53:49;0.00;;;0.00;;
30729;SDS011;17476;48.458;7.928;2023-06-14T10:58:56;0.00;;;0.00;;
30729;SDS011;17476;48.458;7.928;2023-06-14T11:01:36;0.00;;;0.00;;
30729;SDS011;17476;48.458;7.928;2023-06-14T11:04:10;0.00;;;0.00;;
30729;SDS011;17476;48.458;7.928;2023-06-14T11:06:43;0.00;;;0.00;;
30729;SDS011;17476;48.458;7.928;2023-06-14T11:09:29;0.00;;;0.00;;
30729;SDS011;17476;48.458;7.928;2023-06-14T11:12:11;0.00;;;0.00;;
30729;SDS011;17476;48.458;7.928;2023-06-14T11:14:38;0.00;;;0.00;;
30729;SDS011;17476;48.458;7.928;2023-06-14T11:17:05;0.00;;;0.00;;
30729;SDS011;17476;48.458;7.928;2023-06-14T11:19:30;0.00;;;0.00;;
30729;SDS011;17476;48.458;7.928;2023-06-14T11:21:57;0.00;;;0.00;;
30729;SDS011;17476;48.458;7.928;2023-06-14T11:24:23;0.00;;;0.00;;
30729;SDS011;17476;48.458;7.928;2023-06-14T11:26:49;0.00;;;0.00;;
30729;SDS011;17476;48.458;7.928;2023-06-14T11:29:15;0.00;;;0.00;;
30729;SDS011;17476;48.458;7.928;2023-06-14T11:31:45;0.00;;;0.00;;
30729;SDS011;17476;48.458;7.928;2023-06-14T11:34:11;0.00;;;0.00;;
30729;SDS011;17476;48.458;7.928;2023-06-14T11:36:38;0.00;;;0.00;;
30729;SDS011;17476;48.458;7.928;2023-06-14T11:39:04;0.00;;;0.00;;
30729;SDS011;17476;48.458;7.928;2023-06-14T11:44:10;0.00;;;0.00;;
30729;SDS011;17476;48.458;7.928;2023-06-14T11:46:36;0.00;;;0.00;;
30729;SDS011;17476;48.458;7.928;2023-06-14T11:49:03;0.00;;;0.00;;
30729;SDS011;17476;48.458;7.928;2023-06-14T11:51:32;0.00;;;0.00;;
30729;SDS011;17476;48.458;7.928;2023-06-14T11:54:00;0.00;;;0.00;;
30729;SDS011;17476;48.458;7.928;2023-06-14T11:56:27;0.00;;;0.00;;
30729;SDS011;17476;48.458;7.928;2023-06-14T11:58:54;0.00;;;0.00;;
30729;SDS011;17476;48.458;7.928;2023-06-14T12:01:22;0.00;;;0.00;;
30729;SDS011;17476;48.458;7.928;2023-06-14T12:03:52;0.00;;;0.00;;
30729;SDS011;17476;48.458;7.928;2023-06-14T12:06:26;0.00;;;0.00;;
30729;SDS011;17476;48.458;7.928;2023-06-14T12:08:55;0.00;;;0.00;;
30729;SDS011;17476;48.458;7.928;2023-06-14T12:11:21;0.00;;;0.00;;
30729;SDS011;17476;48.458;7.928;2023-06-14T12:13:48;0.00;;;0.00;;
30729;SDS011;17476;48.458;7.928;2023-06-14T12:16:14;0.00;;;0.00;;
30729;SDS011;17476;48.458;7.928;2023-06-14T12:18:40;0.00;;;0.00;;
30729;SDS011;17476;48.458;7.928;2023-06-14T12:21:08;0.00;;;0.00;;
30729;SDS011;17476;48.458;7.928;2023-06-14T12:23:42;0.00;;;0.00;;
30729;SDS011;17476;48.458;7.928;2023-06-14T12:26:13;0.00;;;0.00;;
30729;SDS011;17476;48.458;7.928;2023-06-14T12:28:46;0.00;;;0.00;;
30729;SDS011;17476;48.458;7.928;2023-06-14T12:31:14;0.00;;;0.00;;
30729;SDS011;17476;48.458;7.928;2023-06-14T12:33:41;0.00;;;0.00;;
30729;SDS011;17476;48.458;7.928;2023-06-14T12:36:08;0.00;;;0.00;;
30729;SDS011;17476;48.458;7.928;2023-06-14T12:38:35;0.00;;;0.00;;
30729;SDS011;17476;48.458;7.928;2023-06-14T12:41:02;0.00;;;0.00;;
30729;SDS011;17476;48.458;7.928;2023-06-14T12:43:28;0.00;;;0.00;;
30729;SDS011;17476;48.458;7.928;2023-06-14T12:45:54;0.00;;;0.00;;
30729;SDS011;17476;48.458;7.928;2023-06-14T12:48:20;0.00;;;0.00;;
30729;SDS011;17476;48.458;7.928;2023-06-14T12:50:47;0.00;;;0.00;;
30729;SDS011;17476;48.458;7.928;2023-06-14T12:53:13;0.00;;;0.00;;
30729;SDS011;17476;48.458;7.928;2023-06-14T12:55:39;0.00;;;0.00;;
30729;SDS011;17476;48.458;7.928;2023-06-14T12:58:05;0.00;;;0.00;;
30729;SDS011;17476;48.458;7.928;2023-06-14T13:00:35;0.00;;;0.00;;
30729;SDS011;17476;48.458;7.928;2023-06-14T13:03:00;0.00;;;0.00;;
30729;SDS011;17476;48.458;7.928;2023-06-14T13:05:26;0.00;;;0.00;;
30729;SDS011;17476;48.458;7.928;2023-06-14T13:07:52;0.00;;;0.00;;
30729;SDS011;17476;48.458;7.928;2023-06-14T13:10:18;0.00;;;0.00;;
30729;SDS011;17476;48.458;7.928;2023-06-14T13:12:44;0.00;;;0.00;;
30729;SDS011;17476;48.458;7.928;2023-06-14T13:15:10;0.00;;;0.00;;
30729;SDS011;17476;48.458;7.928;2023-06-14T13:17:36;0.00;;;0.00;;
30729;SDS011;17476;48.458;7.928;2023-06-14T13:20:07;0.00;;;0.00;;
30729;SDS011;17476;48.458;7.928;2023-06-14T13:22:34;0.00;;;0.00;;
30729;SDS011;17476;48.458;7.928;2023-06-14T13:25:00;0.00;;;0.00;;
30729;SDS011;17476;48.458;7.928;2023-06-14T13:27:27;0.00;;;0.00;;
30729;SDS011;17476;48.458;7.928;2023-06-14T13:29:53;0.00;;;0.00;;
30729;SDS011;17476;48.458;7.928;2023-06-14T13:32:22;0.00;;;0.00;;
30729;SDS011;17476;48.458;7.928;2023-06-14T13:34:48;0.00;;;0.00;;
30729;SDS011;17476;48.458;7.928;2023-06-14T13:37:14;0.00;;;0.00;;
30729;SDS011;17476;48.458;7.928;2023-06-14T13:39:41;0.00;;;0.00;;
30729;SDS011;17476;48.458;7.928;2023-06-14T13:42:07;0.00;;;0.00;;
30729;SDS011;17476;48.458;7.928;2023-06-14T13:44:32;0.00;;;0.00;;
30729;SDS011;17476;48.458;7.928;2023-06-14T13:46:59;0.00;;;0.00;;
30729;SDS011;17476;48.458;7.928;2023-06-14T13:49:25;0.00;;;0.00;;
30729;SDS011;17476;48.458;7.928;2023-06-14T13:51:51;0.00;;;0.00;;
30729;SDS011;17476;48.458;7.928;2023-06-14T13:54:18;0.00;;;0.00;;
30729;SDS011;17476;48.458;7.928;2023-06-14T13:56:46;0.00;;;0.00;;
30729;SDS011;17476;48.458;7.928;2023-06-14T13:59:12;0.00;;;0.00;;
30729;SDS011;17476;48.458;7.928;2023-06-14T14:01:38;0.00;;;0.00;;
30729;SDS011;17476;48.458;7.928;2023-06-14T14:04:05;0.00;;;0.00;;
30729;SDS011;17476;48.458;7.928;2023-06-14T14:06:30;0.00;;;0.00;;
30729;SDS011;17476;48.458;7.928;2023-06-14T14:09:02;0.00;;;0.00;;
30729;SDS011;17476;48.458;7.928;2023-06-14T14:11:28;0.00;;;0.00;;
30729;SDS011;17476;48.458;7.928;2023-06-14T14:13:58;0.00;;;0.00;;
30729;SDS011;17476;48.458;7.928;2023-06-14T14:16:24;0.00;;;0.00;;
30729;SDS011;17476;48.458;7.928;2023-06-14T14:18:53;0.00;;;0.00;;
30729;SDS011;17476;48.458;7.928;2023-06-14T14:21:19;0.00;;;0.00;;
30729;SDS011;17476;48.458;7.928;2023-06-14T14:23:45;0.00;;;0.00;;
30729;SDS011;17476;48.458;7.928;2023-06-14T14:26:11;0.00;;;0.00;;
30729;SDS011;17476;48.458;7.928;2023-06-14T14:28:37;0.00;;;0.00;;
30729;SDS011;17476;48.458;7.928;2023-06-14T14:31:02;0.00;;;0.00;;
30729;SDS011;17476;48.458;7.928;2023-06-14T14:33:28;0.00;;;0.00;;
30729;SDS011;17476;48.458;7.928;2023-06-14T14:35:54;0.00;;;0.00;;
30729;SDS011;17476;48.458;7.928;2023-06-14T14:38:20;0.00;;;0.00;;
30729;SDS011;17476;48.458;7.928;2023-06-14T14:40:47;0.00;;;0.00;;
30729;SDS011;17476;48.458;7.928;2023-06-14T14:43:12;0.00;;;0.00;;
30729;SDS011;17476;48.458;7.928;2023-06-14T14:45:38;0.00;;;0.00;;
30729;SDS011;17476;48.458;7.928;2023-06-14T14:48:04;0.00;;;0.00;;
30729;SDS011;17476;48.458;7.928;2023-06-14T14:50:30;0.00;;;0.00;;
30729;SDS011;17476;48.458;7.928;2023-06-14T14:52:57;0.00;;;0.00;;
30729;SDS011;17476;48.458;7.928;2023-06-14T14:55:23;0.00;;;0.00;;
30729;SDS011;17476;48.458;7.928;2023-06-14T14:57:49;0.00;;;0.00;;
30729;SDS011;17476;48.458;7.928;2023-06-14T15:00:15;0.00;;;0.00;;
30729;SDS011;17476;48.458;7.928;2023-06-14T15:02:41;0.00;;;0.00;;
30729;SDS011;17476;48.458;7.928;2023-06-14T15:05:07;0.00;;;0.00;;
30729;SDS011;17476;48.458;7.928;2023-06-14T15:07:33;0.00;;;0.00;;
30729;SDS011;17476;48.458;7.928;2023-06-14T15:10:02;0.00;;;0.00;;